createdAt,value
2023-05-02T00:02:18.069Z,100.00
2023-05-02T00:04:45.345Z,100.00
2023-05-02T00:07:12.444Z,100.00
2023-05-02T00:09:39.408Z,100.00
2023-05-02T00:12:06.483Z,100.00
2023-05-02T00:14:33.569Z,100.00
2023-05-02T00:17:00.486Z,100.00
2023-05-02T00:19:27.463Z,100.00
2023-05-02T00:21:54.546Z,100.00
2023-05-02T00:24:21.512Z,100.00
2023-05-02T00:26:48.555Z,100.00
2023-05-02T00:29:15.536Z,100.00
2023-05-02T00:31:42.755Z,100.00
2023-05-02T00:34:09.940Z,100.00
2023-05-02T00:36:36.933Z,100.00
2023-05-02T00:39:04.612Z,100.00
2023-05-02T00:41:31.628Z,100.00
2023-05-02T00:43:58.865Z,100.00
2023-05-02T00:46:26.461Z,100.00
2023-05-02T00:48:53.625Z,100.00
2023-05-02T00:51:20.599Z,100.00
2023-05-02T00:53:47.562Z,100.00
2023-05-02T00:56:14.623Z,100.00
2023-05-02T00:58:42.236Z,100.00
2023-05-02T01:01:20.655Z,100.00
2023-05-02T01:04:20.066Z,100.00
2023-05-02T01:07:18.218Z,100.00
2023-05-02T01:10:30.829Z,100.00
2023-05-02T01:13:04.422Z,100.00
2023-05-02T01:15:33.614Z,100.00
2023-05-02T01:18:02.691Z,100.00
2023-05-02T01:20:33.389Z,100.00
2023-05-02T01:23:06.063Z,100.00
2023-05-02T01:26:05.005Z,100.00
2023-05-02T01:28:55.169Z,100.00
2023-05-02T01:31:25.485Z,100.00
2023-05-02T01:33:54.341Z,100.00
2023-05-02T01:36:23.659Z,100.00
2023-05-02T01:38:51.820Z,100.00
2023-05-02T01:41:21.158Z,100.00
2023-05-02T01:43:48.943Z,100.00
2023-05-02T01:46:16.382Z,100.00
2023-05-02T01:48:47.064Z,100.00
2023-05-02T01:51:18.413Z,100.00
2023-05-02T01:53:49.763Z,100.00
2023-05-02T01:56:19.954Z,100.00
2023-05-02T01:58:48.961Z,100.00
2023-05-02T02:01:18.078Z,100.00
2023-05-02T02:03:47.063Z,100.00
2023-05-02T02:06:16.319Z,100.00
2023-05-02T02:08:43.650Z,100.00
2023-05-02T02:11:17.430Z,100.00
2023-05-02T02:13:53.395Z,100.00
2023-05-02T02:16:31.048Z,100.00
2023-05-02T02:19:04.721Z,100.00
2023-05-02T02:21:35.012Z,100.00
2023-05-02T02:24:04.612Z,100.00
2023-05-02T02:26:31.661Z,100.00
2023-05-02T02:29:00.270Z,100.00
2023-05-02T02:31:39.344Z,100.00
2023-05-02T02:34:06.693Z,100.00
2023-05-02T02:36:46.857Z,100.00
2023-05-02T02:39:43.882Z,100.00
2023-05-02T02:42:16.754Z,100.00
2023-05-02T02:45:07.291Z,100.00
2023-05-02T02:47:41.557Z,100.00
2023-05-02T02:50:25.422Z,100.00
2023-05-02T02:52:58.078Z,100.00
2023-05-02T02:55:46.221Z,100.00
2023-05-02T02:58:30.981Z,100.00
2023-05-02T03:01:03.347Z,100.00
2023-05-02T03:03:32.872Z,100.00
2023-05-02T03:06:00.984Z,100.00
2023-05-02T03:08:27.969Z,100.00
2023-05-02T03:10:54.904Z,100.00
2023-05-02T03:13:21.885Z,100.00
2023-05-02T03:15:52.075Z,100.00
2023-05-02T03:18:19.512Z,100.00
2023-05-02T03:20:46.521Z,100.00
2023-05-02T03:23:13.576Z,100.00
2023-05-02T03:25:40.404Z,100.00
2023-05-02T03:28:07.344Z,100.00
2023-05-02T03:30:34.378Z,100.00
2023-05-02T03:33:01.917Z,100.00
2023-05-02T03:35:28.942Z,100.00
2023-05-02T03:37:55.993Z,100.00
2023-05-02T03:40:22.900Z,100.00
2023-05-02T03:42:49.937Z,100.00
2023-05-02T03:45:16.939Z,100.00
2023-05-02T03:47:44.024Z,100.00
2023-05-02T03:50:11.308Z,100.00
2023-05-02T03:52:38.232Z,100.00
2023-05-02T03:55:08.159Z,100.00
2023-05-02T03:57:35.135Z,100.00
2023-05-02T04:00:02.361Z,100.00
2023-05-02T04:02:30.752Z,100.00
2023-05-02T04:04:57.740Z,100.00
2023-05-02T04:07:26.192Z,100.00
2023-05-02T04:09:53.260Z,100.00
2023-05-02T04:12:20.805Z,100.00
2023-05-02T04:14:47.814Z,100.00
2023-05-02T04:17:17.990Z,100.00
2023-05-02T04:19:45.127Z,100.00
2023-05-02T04:22:12.737Z,100.00
2023-05-02T04:24:39.805Z,100.00
2023-05-02T04:27:06.697Z,100.00
2023-05-02T04:29:33.813Z,100.00
2023-05-02T04:32:00.775Z,100.00
2023-05-02T04:34:28.775Z,100.00
2023-05-02T04:36:55.823Z,100.00
2023-05-02T04:39:22.676Z,100.00
2023-05-02T04:41:49.743Z,100.00
2023-05-02T04:44:16.997Z,100.00
2023-05-02T04:46:44.887Z,100.00
2023-05-02T04:49:12.482Z,100.00
2023-05-02T04:51:39.438Z,100.00
2023-05-02T04:54:06.421Z,100.00
2023-05-02T04:56:33.429Z,100.00
2023-05-02T04:59:00.431Z,100.00
2023-05-02T05:01:28.397Z,100.00
2023-05-02T05:03:56.067Z,100.00
2023-05-02T05:06:23.126Z,100.00
2023-05-02T05:08:50.161Z,100.00
2023-05-02T05:11:17.190Z,100.00
2023-05-02T05:13:44.183Z,100.00
2023-05-02T05:16:11.045Z,100.00
2023-05-02T05:18:41.056Z,100.00
2023-05-02T05:21:08.933Z,100.00
2023-05-02T05:23:37.546Z,100.00
2023-05-02T05:26:15.757Z,100.00
2023-05-02T05:28:44.025Z,100.00
2023-05-02T05:31:14.558Z,100.00
2023-05-02T05:33:44.078Z,100.00
2023-05-02T05:36:13.247Z,100.00
2023-05-02T05:38:40.414Z,100.00
2023-05-02T05:41:08.318Z,100.00
2023-05-02T05:43:37.348Z,100.00
2023-05-02T05:46:05.144Z,100.00
2023-05-02T05:48:32.152Z,100.00
2023-05-02T05:50:59.096Z,100.00
2023-05-02T05:53:25.973Z,100.00
2023-05-02T05:55:52.917Z,100.00
2023-05-02T05:58:19.946Z,100.00
2023-05-02T06:00:46.985Z,100.00
2023-05-02T06:03:14.164Z,100.00
2023-05-02T06:05:41.110Z,100.00
2023-05-02T06:08:08.136Z,100.00
2023-05-02T06:10:35.363Z,100.00
2023-05-02T06:13:02.376Z,100.00
2023-05-02T06:15:29.436Z,100.00
2023-05-02T06:17:56.368Z,100.00
2023-05-02T06:20:23.398Z,100.00
2023-05-02T06:22:50.521Z,100.00
2023-05-02T06:25:17.590Z,99.55
2023-05-02T06:27:44.554Z,97.80
2023-05-02T06:30:11.842Z,98.22
2023-05-02T06:32:38.988Z,99.02
2023-05-02T06:35:06.552Z,99.35
2023-05-02T06:37:35.335Z,100.00
2023-05-02T06:40:03.382Z,100.00
2023-05-02T06:42:31.009Z,97.46
2023-05-02T06:44:57.890Z,96.51
2023-05-02T06:47:24.972Z,95.07
2023-05-02T06:49:53.222Z,93.26
2023-05-02T06:52:20.212Z,89.92
2023-05-02T06:54:47.093Z,89.67
2023-05-02T06:57:14.230Z,89.89
2023-05-02T06:59:41.248Z,88.46
2023-05-02T07:02:08.468Z,89.23
2023-05-02T07:04:35.418Z,89.04
2023-05-02T07:07:02.461Z,87.82
2023-05-02T07:09:29.431Z,87.22
2023-05-02T07:11:56.471Z,90.05
2023-05-02T07:14:23.368Z,89.69
2023-05-02T07:16:50.404Z,88.74
2023-05-02T07:19:17.668Z,89.32
2023-05-02T07:21:44.768Z,88.91
2023-05-02T07:24:11.732Z,89.78
2023-05-02T07:26:38.732Z,88.35
2023-05-02T07:29:07.170Z,86.73
2023-05-02T07:31:34.095Z,85.26
2023-05-02T07:34:01.257Z,84.51
2023-05-02T07:36:28.305Z,83.79
2023-05-02T07:38:55.300Z,83.64
2023-05-02T07:41:22.341Z,82.19
2023-05-02T07:43:49.739Z,78.67
2023-05-02T07:46:16.868Z,79.51
2023-05-02T07:48:43.826Z,77.50
2023-05-02T07:51:11.422Z,78.00
2023-05-02T07:53:38.561Z,78.54
2023-05-02T07:56:07.178Z,77.21
2023-05-02T07:58:36.418Z,77.61
2023-05-02T08:01:04.183Z,76.62
2023-05-02T08:03:31.652Z,74.28
2023-05-02T08:05:58.911Z,73.23
2023-05-02T08:08:26.076Z,72.19
2023-05-02T08:10:53.111Z,71.61
2023-05-02T08:13:20.194Z,71.46
2023-05-02T08:15:47.112Z,73.23
2023-05-02T08:18:14.112Z,73.64
2023-05-02T08:20:41.141Z,70.67
2023-05-02T08:23:08.137Z,70.13
2023-05-02T08:25:35.196Z,71.47
2023-05-02T08:28:02.224Z,71.76
2023-05-02T08:30:29.252Z,68.80
2023-05-02T08:32:56.312Z,68.60
2023-05-02T08:35:23.191Z,69.21
2023-05-02T08:37:50.248Z,66.21
2023-05-02T08:40:24.693Z,69.78
2023-05-02T08:43:02.039Z,68.46
2023-05-02T08:45:37.808Z,66.82
2023-05-02T08:48:11.194Z,61.54
2023-05-02T08:50:40.140Z,59.14
2023-05-02T08:53:08.631Z,58.25
2023-05-02T08:55:40.261Z,56.62
2023-05-02T08:58:08.797Z,55.20
2023-05-02T09:00:41.225Z,53.37
2023-05-02T09:03:36.769Z,51.32
2023-05-02T09:06:06.456Z,51.20
2023-05-02T09:08:34.891Z,50.51
2023-05-02T09:11:04.132Z,49.72
2023-05-02T09:13:45.300Z,49.47
2023-05-02T09:16:20.056Z,49.92
2023-05-02T09:19:06.213Z,52.53
2023-05-02T09:21:40.211Z,50.96
2023-05-02T09:24:18.883Z,50.17
2023-05-02T09:27:06.193Z,47.91
2023-05-02T09:29:39.107Z,46.38
2023-05-02T09:32:07.246Z,46.66
2023-05-02T09:34:34.614Z,47.12
2023-05-02T09:37:03.009Z,46.68
2023-05-02T09:39:30.067Z,45.68
2023-05-02T09:41:58.073Z,47.59
2023-05-02T09:44:27.027Z,47.04
2023-05-02T09:47:02.477Z,47.15
2023-05-02T09:49:46.775Z,47.84
2023-05-02T09:52:16.131Z,50.23
2023-05-02T09:54:43.367Z,50.38
2023-05-02T09:57:11.427Z,47.95
2023-05-02T09:59:41.612Z,48.09
2023-05-02T10:02:11.892Z,45.88
2023-05-02T10:04:39.880Z,44.90
2023-05-02T10:07:10.842Z,47.98
2023-05-02T10:09:43.394Z,47.63
2023-05-02T10:12:14.863Z,48.59
2023-05-02T10:14:47.346Z,48.48
2023-05-02T10:17:26.788Z,48.72
2023-05-02T10:19:56.755Z,48.08
2023-05-02T10:22:23.977Z,48.80
2023-05-02T10:24:51.025Z,44.64
2023-05-02T10:27:18.545Z,44.96
2023-05-02T10:29:47.225Z,45.32
2023-05-02T10:32:15.404Z,44.96
2023-05-02T10:34:42.851Z,44.78
2023-05-02T10:37:09.951Z,44.15
2023-05-02T10:39:38.090Z,43.41
2023-05-02T10:42:07.252Z,42.83
2023-05-02T10:44:34.416Z,44.17
2023-05-02T10:47:01.704Z,45.23
2023-05-02T10:49:30.092Z,44.62
2023-05-02T10:51:57.048Z,43.13
2023-05-02T10:54:25.573Z,43.67
2023-05-02T10:57:08.438Z,43.33
2023-05-02T10:59:38.095Z,42.12
2023-05-02T11:02:28.228Z,43.51
2023-05-02T11:05:04.310Z,42.89
2023-05-02T11:07:33.899Z,41.88
2023-05-02T11:10:27.821Z,40.98
2023-05-02T11:13:01.567Z,41.37
2023-05-02T11:15:29.026Z,42.13
2023-05-02T11:18:02.436Z,43.48
2023-05-02T11:20:32.771Z,41.94
2023-05-02T11:23:21.864Z,41.94
2023-05-02T11:25:54.502Z,42.60
2023-05-02T11:28:42.865Z,41.25
2023-05-02T11:31:31.411Z,43.79
2023-05-02T11:34:03.096Z,47.05
2023-05-02T11:36:34.228Z,45.88
2023-05-02T11:39:02.951Z,44.21
2023-05-02T11:41:42.888Z,43.75
2023-05-02T11:44:10.571Z,44.38
2023-05-02T11:46:38.809Z,43.61
2023-05-02T11:49:09.332Z,44.76
2023-05-02T11:51:37.760Z,44.18
2023-05-02T11:54:07.979Z,45.01
2023-05-02T11:56:35.035Z,47.15
2023-05-02T11:59:03.723Z,47.15
2023-05-02T12:01:31.022Z,45.95
2023-05-02T12:04:08.263Z,45.06
2023-05-02T12:06:35.936Z,47.39
2023-05-02T12:09:20.568Z,47.15
2023-05-02T12:11:52.809Z,45.72
2023-05-02T12:14:30.378Z,46.18
2023-05-02T12:16:59.501Z,47.51
2023-05-02T12:19:27.485Z,47.62
2023-05-02T12:21:54.648Z,50.21
2023-05-02T12:24:21.865Z,50.02
2023-05-02T12:26:49.742Z,48.83
2023-05-02T12:29:18.153Z,49.52
2023-05-02T12:31:52.365Z,49.68
2023-05-02T12:34:33.707Z,48.67
2023-05-02T12:37:00.962Z,51.05
2023-05-02T12:39:43.308Z,51.29
2023-05-02T12:42:14.855Z,53.65
2023-05-02T12:44:46.859Z,53.16
2023-05-02T12:47:16.166Z,53.44
2023-05-02T12:49:50.874Z,54.88
2023-05-02T12:52:19.825Z,56.10
2023-05-02T12:54:47.492Z,57.68
2023-05-02T12:57:26.878Z,61.38
2023-05-02T12:59:54.714Z,61.63
2023-05-02T13:02:22.970Z,65.67
2023-05-02T13:04:50.187Z,66.46
2023-05-02T13:07:17.268Z,69.55
2023-05-02T13:09:44.232Z,71.84
2023-05-02T13:12:11.295Z,74.51
2023-05-02T13:14:38.581Z,75.46
2023-05-02T13:17:05.639Z,76.80
2023-05-02T13:19:32.618Z,76.78
2023-05-02T13:22:00.138Z,77.26
2023-05-02T13:24:27.170Z,79.13
2023-05-02T13:26:54.110Z,80.30
2023-05-02T13:29:21.073Z,83.28
2023-05-02T13:31:48.021Z,82.11
2023-05-02T13:34:15.022Z,85.06
2023-05-02T13:36:46.600Z,84.69
2023-05-02T13:39:14.265Z,88.45
2023-05-02T13:41:41.675Z,91.14
2023-05-02T13:44:09.749Z,100.00
2023-05-02T13:46:38.062Z,100.00
2023-05-02T13:49:05.733Z,100.00
2023-05-02T13:51:33.244Z,100.00
2023-05-02T13:54:01.419Z,100.00
2023-05-02T13:56:28.476Z,100.00
2023-05-02T13:58:55.507Z,100.00
2023-05-02T14:01:22.921Z,100.00
2023-05-02T14:03:50.360Z,100.00
2023-05-02T14:06:17.472Z,100.00
2023-05-02T14:08:45.106Z,100.00
2023-05-02T14:11:12.189Z,100.00
2023-05-02T14:13:39.268Z,100.00
2023-05-02T14:16:06.770Z,100.00
2023-05-02T14:18:33.669Z,100.00
2023-05-02T14:21:00.771Z,100.00
2023-05-02T14:23:31.162Z,100.00
2023-05-02T14:25:58.510Z,100.00
2023-05-02T14:28:27.341Z,100.00
2023-05-02T14:30:54.368Z,100.00
2023-05-02T14:33:21.408Z,100.00
2023-05-02T14:35:49.497Z,100.00
2023-05-02T14:38:16.736Z,100.00
2023-05-02T14:40:43.798Z,100.00
2023-05-02T14:43:14.979Z,100.00
2023-05-02T14:45:41.903Z,100.00
2023-05-02T14:48:09.211Z,100.00
2023-05-02T14:50:37.889Z,100.00
2023-05-02T14:53:04.780Z,100.00
2023-05-02T14:55:36.901Z,100.00
2023-05-02T14:58:03.968Z,100.00
2023-05-02T15:00:31.007Z,100.00
2023-05-02T15:02:58.134Z,100.00
2023-05-02T15:05:25.426Z,100.00
2023-05-02T15:07:52.462Z,100.00
2023-05-02T15:10:19.420Z,100.00
2023-05-02T15:12:50.888Z,100.00
2023-05-02T15:15:19.138Z,100.00
2023-05-02T15:17:46.074Z,100.00
2023-05-02T15:20:13.422Z,100.00
2023-05-02T15:22:40.615Z,100.00
2023-05-02T15:25:08.965Z,100.00
2023-05-02T15:27:36.143Z,100.00
2023-05-02T15:30:03.852Z,100.00
2023-05-02T15:32:31.134Z,100.00
2023-05-02T15:34:58.078Z,100.00
2023-05-02T15:37:25.121Z,100.00
2023-05-02T15:39:52.134Z,100.00
2023-05-02T15:42:19.228Z,100.00
2023-05-02T15:44:46.229Z,100.00
2023-05-02T15:47:13.159Z,100.00
2023-05-02T15:49:40.968Z,100.00
2023-05-02T15:52:07.965Z,100.00
2023-05-02T15:54:34.912Z,100.00
2023-05-02T15:57:02.994Z,100.00
2023-05-02T15:59:30.068Z,100.00
2023-05-02T16:01:57.112Z,100.00
2023-05-02T16:04:25.514Z,100.00
2023-05-02T16:06:52.741Z,100.00
2023-05-02T16:09:21.219Z,100.00
2023-05-02T16:11:49.602Z,100.00
2023-05-02T16:14:16.531Z,100.00
2023-05-02T16:16:43.446Z,100.00
2023-05-02T16:19:13.698Z,100.00
2023-05-02T16:21:42.545Z,100.00
2023-05-02T16:24:10.389Z,100.00
2023-05-02T16:26:37.473Z,100.00
2023-05-02T16:29:04.491Z,100.00
2023-05-02T16:31:31.573Z,100.00
2023-05-02T16:33:59.039Z,100.00
2023-05-02T16:36:26.691Z,100.00
2023-05-02T16:38:53.872Z,100.00
2023-05-02T16:41:21.642Z,100.00
2023-05-02T16:43:49.972Z,100.00
2023-05-02T16:46:17.677Z,100.00
2023-05-02T16:48:44.685Z,100.00
2023-05-02T16:51:11.721Z,100.00
2023-05-02T16:53:38.852Z,100.00
2023-05-02T16:56:06.252Z,100.00
2023-05-02T16:58:33.264Z,100.00
2023-05-02T17:01:01.405Z,100.00
2023-05-02T17:03:29.708Z,100.00
2023-05-02T17:06:03.662Z,100.00
2023-05-02T17:08:30.737Z,100.00
2023-05-02T17:10:57.736Z,100.00
2023-05-02T17:13:24.926Z,100.00
2023-05-02T17:15:53.133Z,100.00
2023-05-02T17:18:20.055Z,100.00
2023-05-02T17:20:47.252Z,100.00
2023-05-02T17:23:14.807Z,100.00
2023-05-02T17:25:42.422Z,100.00
2023-05-02T17:28:09.656Z,100.00
2023-05-02T17:30:36.753Z,100.00
2023-05-02T17:33:04.038Z,100.00
2023-05-02T17:35:31.965Z,100.00
2023-05-02T17:37:59.025Z,100.00
2023-05-02T17:40:26.080Z,100.00
2023-05-02T17:42:53.060Z,100.00
2023-05-02T17:45:20.097Z,100.00
2023-05-02T17:47:47.245Z,100.00
2023-05-02T17:50:14.420Z,100.00
2023-05-02T17:52:41.407Z,100.00
2023-05-02T17:55:08.987Z,100.00
2023-05-02T17:57:36.053Z,100.00
2023-05-02T18:00:04.882Z,100.00
2023-05-02T18:02:32.126Z,100.00
2023-05-02T18:05:00.767Z,100.00
2023-05-02T18:07:30.228Z,100.00
2023-05-02T18:09:57.522Z,100.00
2023-05-02T18:12:24.538Z,100.00
2023-05-02T18:14:52.774Z,100.00
2023-05-02T18:17:21.032Z,100.00
2023-05-02T18:19:50.280Z,100.00
2023-05-02T18:22:19.778Z,100.00
2023-05-02T18:24:47.313Z,100.00
2023-05-02T18:27:14.265Z,100.00
2023-05-02T18:29:41.564Z,100.00
2023-05-02T18:32:09.017Z,100.00
2023-05-02T18:34:38.473Z,100.00
2023-05-02T18:37:06.232Z,100.00
2023-05-02T18:39:34.444Z,100.00
2023-05-02T18:42:05.333Z,100.00
2023-05-02T18:44:32.503Z,100.00
2023-05-02T18:46:59.460Z,100.00
2023-05-02T18:49:29.020Z,100.00
2023-05-02T18:51:56.311Z,100.00
2023-05-02T18:54:23.635Z,100.00
2023-05-02T18:56:50.740Z,100.00
2023-05-02T18:59:19.149Z,100.00
2023-05-02T19:01:48.700Z,100.00
2023-05-02T19:04:15.968Z,100.00
2023-05-02T19:06:43.083Z,100.00
2023-05-02T19:09:10.133Z,100.00
2023-05-02T19:11:37.129Z,100.00
2023-05-02T19:14:04.110Z,100.00
2023-05-02T19:16:31.732Z,100.00
2023-05-02T19:18:58.796Z,100.00
2023-05-02T19:21:26.105Z,100.00
2023-05-02T19:23:53.337Z,100.00
2023-05-02T19:26:20.326Z,100.00
2023-05-02T19:28:47.448Z,100.00
2023-05-02T19:31:16.826Z,100.00
2023-05-02T19:33:50.370Z,100.00
2023-05-02T19:36:18.777Z,100.00
2023-05-02T19:38:49.585Z,100.00
2023-05-02T19:41:17.123Z,100.00
2023-05-02T19:43:44.555Z,100.00
2023-05-02T19:46:11.741Z,100.00
2023-05-02T19:48:38.863Z,100.00
2023-05-02T19:51:05.805Z,100.00
2023-05-02T19:53:34.486Z,100.00
2023-05-02T19:56:02.669Z,100.00
2023-05-02T19:58:30.171Z,100.00
2023-05-02T20:00:57.461Z,100.00
2023-05-02T20:03:25.671Z,100.00
2023-05-02T20:05:52.879Z,100.00
2023-05-02T20:08:21.464Z,100.00
2023-05-02T20:10:49.251Z,100.00
2023-05-02T20:13:16.299Z,100.00
2023-05-02T20:15:43.351Z,100.00
2023-05-02T20:18:10.328Z,100.00
2023-05-02T20:20:37.406Z,100.00
2023-05-02T20:23:04.271Z,100.00
2023-05-02T20:25:31.182Z,100.00
2023-05-02T20:27:58.068Z,100.00
2023-05-02T20:30:25.061Z,100.00
2023-05-02T20:32:52.307Z,100.00
2023-05-02T20:35:19.647Z,100.00
2023-05-02T20:37:47.119Z,100.00
2023-05-02T20:40:14.221Z,100.00
2023-05-02T20:42:42.625Z,100.00
2023-05-02T20:45:12.767Z,100.00
2023-05-02T20:47:40.009Z,100.00
2023-05-02T20:50:09.522Z,100.00
2023-05-02T20:52:39.307Z,100.00
2023-05-02T20:55:06.864Z,100.00
2023-05-02T20:57:33.822Z,100.00
2023-05-02T21:00:01.640Z,100.00
2023-05-02T21:02:28.849Z,100.00
2023-05-02T21:04:56.163Z,100.00
2023-05-02T21:07:23.074Z,100.00
2023-05-02T21:09:50.176Z,100.00
2023-05-02T21:12:17.285Z,100.00
2023-05-02T21:14:44.195Z,100.00
2023-05-02T21:17:11.120Z,100.00
2023-05-02T21:19:38.052Z,100.00
2023-05-02T21:22:04.921Z,100.00
2023-05-02T21:24:31.976Z,100.00
2023-05-02T21:26:59.454Z,100.00
2023-05-02T21:29:26.366Z,100.00
2023-05-02T21:31:54.761Z,100.00
2023-05-02T21:34:21.964Z,100.00
2023-05-02T21:36:48.841Z,100.00
2023-05-02T21:39:16.640Z,100.00
2023-05-02T21:41:43.654Z,100.00
2023-05-02T21:44:11.550Z,100.00
2023-05-02T21:46:38.426Z,100.00
2023-05-02T21:49:05.413Z,100.00
2023-05-02T21:51:34.238Z,100.00
2023-05-02T21:54:01.167Z,100.00
2023-05-02T21:56:28.008Z,100.00
2023-05-02T21:58:55.013Z,100.00
2023-05-02T22:01:22.181Z,100.00
2023-05-02T22:03:49.076Z,100.00
2023-05-02T22:06:17.461Z,100.00
2023-05-02T22:08:44.666Z,100.00
2023-05-02T22:11:11.559Z,100.00
2023-05-02T22:13:38.694Z,100.00
2023-05-02T22:16:07.000Z,100.00
2023-05-02T22:18:33.922Z,100.00
2023-05-02T22:21:02.362Z,100.00
2023-05-02T22:23:31.242Z,100.00
2023-05-02T22:25:58.823Z,100.00
2023-05-02T22:28:25.769Z,100.00
2023-05-02T22:30:52.783Z,100.00
2023-05-02T22:33:19.701Z,100.00
2023-05-02T22:35:46.574Z,100.00
2023-05-02T22:38:16.912Z,100.00
2023-05-02T22:40:43.810Z,100.00
2023-05-02T22:43:10.944Z,100.00
2023-05-02T22:45:38.692Z,100.00
2023-05-02T22:48:09.657Z,100.00
2023-05-02T22:50:36.623Z,100.00
2023-05-02T22:53:04.366Z,100.00
2023-05-02T22:55:31.378Z,100.00
2023-05-02T22:57:58.673Z,100.00
2023-05-02T23:00:25.574Z,100.00
2023-05-02T23:02:52.523Z,100.00
2023-05-02T23:05:19.800Z,100.00
2023-05-02T23:07:46.709Z,100.00
2023-05-02T23:10:13.624Z,100.00
2023-05-02T23:12:42.221Z,100.00
2023-05-02T23:15:10.069Z,100.00
2023-05-02T23:17:41.744Z,100.00
2023-05-02T23:20:13.106Z,100.00
2023-05-02T23:22:46.798Z,100.00
2023-05-02T23:25:15.184Z,100.00
2023-05-02T23:27:42.313Z,100.00
2023-05-02T23:30:09.908Z,100.00
2023-05-02T23:32:37.652Z,100.00
2023-05-02T23:35:06.075Z,100.00
2023-05-02T23:37:33.585Z,100.00
2023-05-02T23:40:01.383Z,100.00
2023-05-02T23:42:30.389Z,100.00
2023-05-02T23:44:58.176Z,100.00
2023-05-02T23:47:28.263Z,100.00
2023-05-02T23:49:55.361Z,100.00
2023-05-02T23:52:22.236Z,100.00
2023-05-02T23:54:49.398Z,100.00
2023-05-02T23:57:16.292Z,100.00
2023-05-02T23:59:43.141Z,100.00
